Time;durP1;ratioP1;P1;durP2;ratioP2;P2;SDS_P1;SDS_P2;PMS_P1;PMS_P2;Temp;Humidity;BMP_temperature;BMP_pressure;BME280_temperature;BME280_humidity;BME280_pressure;Samples;Min_cycle;Max_cycle;Signal;HPM_P1;HPM_P2
2022/08/30 00:02:40;;;;;;;27.95;6.63;;;;;;;22.39;100.00;151666.28;5094056;28;20202;-62
2022/08/30 00:05:09;;;;;;;33.85;5.80;;;;;;;22.41;100.00;151672.63;5093149;28;20191;-62
2022/08/30 00:07:36;;;;;;;19.80;5.78;;;;;;;22.20;100.00;151620.38;5094196;28;20634;-64
2022/08/30 00:10:04;;;;;;;27.35;6.35;;;;;;;22.17;100.00;151611.44;5093920;28;20193;-63
2022/08/30 00:12:31;;;;;;;26.52;6.60;;;;;;;21.98;100.00;151564.25;5094099;28;20239;-63
2022/08/30 00:14:58;;;;;;;26.15;6.10;;;;;;;21.22;100.00;151373.03;5093863;28;20184;-62
2022/08/30 00:17:25;;;;;;;24.02;6.00;;;;;;;21.53;100.00;151450.78;5093743;28;20184;-63
2022/08/30 00:19:52;;;;;;;27.83;6.75;;;;;;;21.59;100.00;151466.09;5093824;28;20184;-64
2022/08/30 00:22:20;;;;;;;23.90;6.45;;;;;;;21.48;100.00;151438.03;5093990;28;20176;-64
2022/08/30 00:24:48;;;;;;;27.70;8.05;;;;;;;21.38;100.00;151413.84;5093946;28;20562;-64
2022/08/30 00:27:15;;;;;;;28.65;6.68;;;;;;;21.32;100.00;151397.25;5093687;28;20179;-63
2022/08/30 00:29:42;;;;;;;25.92;6.30;;;;;;;21.18;100.00;151362.84;5093887;28;20274;-64
2022/08/30 00:32:09;;;;;;;27.40;6.97;;;;;;;20.78;100.00;151262.19;5093791;28;20231;-63
2022/08/30 00:34:35;;;;;;;28.42;7.03;;;;;;;20.77;100.00;151259.63;5093843;28;20199;-63
2022/08/30 00:37:02;;;;;;;24.33;7.43;;;;;;;20.65;100.00;151227.78;5093634;28;20188;-62
2022/08/30 00:39:31;;;;;;;26.98;7.10;;;;;;;20.52;100.00;151195.94;5093323;28;20188;-63
2022/08/30 00:41:57;;;;;;;41.67;7.25;;;;;;;20.61;100.00;151217.59;5093569;28;20255;-64
2022/08/30 00:44:24;;;;;;;24.05;6.80;;;;;;;20.66;100.00;151231.63;5093213;28;20194;-63
2022/08/30 00:46:51;;;;;;;24.17;6.17;;;;;;;20.71;100.00;151243.09;5093048;28;20231;-64
2022/08/30 00:49:18;;;;;;;32.63;6.55;;;;;;;20.69;100.00;151239.25;5093182;28;20188;-63
2022/08/30 00:51:46;;;;;;;29.17;6.50;;;;;;;20.72;100.00;151245.59;5092506;28;20200;-64
2022/08/30 00:54:13;;;;;;;20.45;7.05;;;;;;;20.80;100.00;151265.97;5093141;28;20186;-62
2022/08/30 00:56:42;;;;;;;24.03;6.73;;;;;;;20.50;100.00;151192.09;5092974;28;20184;-63
2022/08/30 00:59:09;;;;;;;21.87;6.63;;;;;;;20.47;100.00;151183.19;5093358;28;20211;-63
2022/08/30 01:01:37;;;;;;;36.30;7.33;;;;;;;20.46;100.00;151181.91;5093174;28;20639;-63
2022/08/30 01:04:05;;;;;;;26.17;7.23;;;;;;;20.35;100.00;151153.91;5093144;28;20184;-64
2022/08/30 01:06:32;;;;;;;21.03;6.97;;;;;;;20.45;100.00;151178.13;5092843;28;20203;-62
2022/08/30 01:09:01;;;;;;;27.83;6.90;;;;;;;20.42;100.00;151171.72;5092809;28;20184;-62
2022/08/30 01:11:29;;;;;;;30.13;7.17;;;;;;;20.31;100.00;151143.75;5093020;28;20582;-62
2022/08/30 01:13:58;;;;;;;25.23;6.80;;;;;;;20.52;100.00;151195.94;5092703;28;20191;-62
2022/08/30 01:16:25;;;;;;;22.33;6.38;;;;;;;20.52;100.00;151197.22;5092638;28;20194;-62
2022/08/30 01:18:56;;;;;;;32.37;7.10;;;;;;;20.58;100.00;151209.97;5092938;28;20203;-62
2022/08/30 01:21:28;;;;;;;34.13;6.82;;;;;;;20.56;100.00;151204.84;5092887;28;20553;-62
2022/08/30 01:23:59;;;;;;;27.13;6.53;;;;;;;20.51;100.00;151194.66;5092842;28;20210;-62
2022/08/30 01:26:28;;;;;;;27.30;6.73;;;;;;;20.49;100.00;151189.59;5092813;28;20562;-63
2022/08/30 01:28:58;;;;;;;24.43;6.33;;;;;;;20.47;100.00;151184.47;5092716;28;20653;-62
2022/08/30 01:31:26;;;;;;;30.67;6.97;;;;;;;20.24;100.00;151124.59;5092298;28;20639;-62
2022/08/30 01:33:53;;;;;;;22.07;6.37;;;;;;;20.29;100.00;151138.63;5092566;28;20204;-62
2022/08/30 01:36:21;;;;;;;17.97;6.37;;;;;;;20.19;100.00;151113.13;5092353;28;20186;-62
2022/08/30 01:38:50;;;;;;;19.17;6.73;;;;;;;20.10;100.00;151090.22;5092614;28;20202;-62
2022/08/30 01:41:22;;;;;;;26.13;7.13;;;;;;;20.06;100.00;151080.03;5092241;28;20226;-62
2022/08/30 01:43:51;;;;;;;17.73;6.40;;;;;;;19.99;100.00;151062.19;5092104;28;20179;-62
2022/08/30 01:46:22;;;;;;;31.97;7.00;;;;;;;19.88;100.00;151035.47;5091905;28;20242;-62
2022/08/30 01:48:49;;;;;;;35.87;7.93;;;;;;;19.99;100.00;151062.19;5092048;28;20275;-62
2022/08/30 01:51:16;;;;;;;24.93;7.83;;;;;;;19.96;100.00;151054.56;5091171;28;20188;-62
2022/08/30 01:53:44;;;;;;;28.53;7.17;;;;;;;20.15;100.00;151101.69;5092189;28;20240;-63
2022/08/30 01:56:12;;;;;;;28.27;7.23;;;;;;;20.28;100.00;151136.06;5091953;28;20184;-63
2022/08/30 01:58:41;;;;;;;17.73;7.07;;;;;;;20.35;100.00;151153.91;5092237;28;20195;-63
2022/08/30 02:01:11;;;;;;;23.03;6.87;;;;;;;20.32;100.00;151146.31;5092252;28;20196;-63
2022/08/30 02:03:38;;;;;;;26.17;7.07;;;;;;;20.51;100.00;151194.66;5091067;28;20290;-63
2022/08/30 02:06:08;;;;;;;32.37;7.80;;;;;;;20.39;100.00;151164.09;5092144;28;20554;-62
2022/08/30 02:08:35;;;;;;;27.97;7.47;;;;;;;20.18;100.00;151110.59;5091784;28;20195;-62
2022/08/30 02:11:02;;;;;;;23.30;7.10;;;;;;;19.81;100.00;151016.38;5092038;28;20634;-62
2022/08/30 02:13:30;;;;;;;22.10;7.90;;;;;;;19.81;100.00;151017.66;5091888;28;20669;-62
2022/08/30 02:15:59;;;;;;;20.97;7.43;;;;;;;19.48;100.00;150934.91;5092123;28;20192;-62
2022/08/30 02:18:27;;;;;;;22.27;7.57;;;;;;;19.57;100.00;150956.53;5091944;28;20216;-62
2022/08/30 02:20:54;;;;;;;25.27;7.10;;;;;;;19.65;100.00;150975.66;5091697;28;20226;-62
2022/08/30 02:23:21;;;;;;;31.10;7.70;;;;;;;19.71;100.00;150992.19;5091575;28;20188;-63
2022/08/30 02:25:48;;;;;;;27.00;8.00;;;;;;;19.63;100.00;150971.81;5091607;28;20188;-62
2022/08/30 02:28:15;;;;;;;19.67;7.33;;;;;;;19.78;100.00;151010.00;5091899;28;20571;-63
2022/08/30 02:30:42;;;;;;;26.53;7.27;;;;;;;19.82;100.00;151020.16;5091566;28;20191;-63
2022/08/30 02:33:10;;;;;;;35.90;7.47;;;;;;;19.95;100.00;151052.00;5091936;28;20280;-63
2022/08/30 02:35:37;;;;;;;32.80;8.00;;;;;;;20.06;100.00;151081.31;5091914;28;20650;-62
2022/08/30 02:38:05;;;;;;;27.77;7.17;;;;;;;20.09;100.00;151087.66;5091614;28;20184;-63
2022/08/30 02:40:32;;;;;;;38.90;7.73;;;;;;;20.04;100.00;151076.19;5091361;28;20191;-62
2022/08/30 02:42:59;;;;;;;26.77;7.83;;;;;;;20.11;100.00;151091.50;5091860;28;20207;-62
2022/08/30 02:45:27;;;;;;;22.80;7.27;;;;;;;20.02;100.00;151071.13;5091470;28;20231;-63
2022/08/30 02:47:55;;;;;;;15.13;7.47;;;;;;;20.22;100.00;151119.50;5091756;28;20558;-62
2022/08/30 02:50:23;;;;;;;17.47;7.30;;;;;;;20.16;100.00;151104.19;5091406;28;20275;-63
2022/08/30 02:52:50;;;;;;;19.90;6.87;;;;;;;19.95;100.00;151053.28;5091321;28;20291;-62
2022/08/30 02:55:18;;;;;;;34.63;7.17;;;;;;;19.82;100.00;151018.88;5091315;28;20194;-61
2022/08/30 02:57:46;;;;;;;30.47;8.30;;;;;;;19.78;100.00;151008.72;5091651;28;20185;-63
2022/08/30 03:00:16;;;;;;;24.80;7.47;;;;;;;19.90;100.00;151039.31;5091561;28;20651;-62
2022/08/30 03:02:43;;;;;;;28.67;7.40;;;;;;;19.84;100.00;151024.00;5091486;28;20634;-62
2022/08/30 03:05:13;;;;;;;22.47;7.90;;;;;;;19.90;100.00;151039.31;5091555;28;20559;-63
2022/08/30 03:07:41;;;;;;;27.27;8.10;;;;;;;19.96;100.00;151055.81;5091188;28;20219;-62
2022/08/30 03:10:10;;;;;;;26.53;7.47;;;;;;;20.00;100.00;151064.72;5091307;28;20271;-63
2022/08/30 03:12:37;;;;;;;34.97;8.20;;;;;;;19.81;100.00;151016.38;5091119;28;20208;-63
2022/08/30 03:15:05;;;;;;;29.37;7.93;;;;;;;19.93;100.00;151048.19;5094476;28;20569;-62
2022/08/30 03:17:32;;;;;;;28.53;7.77;;;;;;;19.95;100.00;151052.00;5094900;28;20184;-63
2022/08/30 03:20:00;;;;;;;26.47;8.27;;;;;;;19.87;100.00;151031.63;5095213;28;20653;-63
2022/08/30 03:22:27;;;;;;;29.30;8.10;;;;;;;19.73;100.00;150996.03;5094873;28;20192;-61
2022/08/30 03:24:58;;;;;;;18.47;7.63;;;;;;;19.72;100.00;150994.75;5094811;28;20184;-62
2022/08/30 03:27:25;;;;;;;24.47;8.20;;;;;;;19.52;100.00;150943.78;5094782;28;20219;-62
2022/08/30 03:29:52;;;;;;;26.00;8.20;;;;;;;19.35;100.00;150900.53;5094816;28;20199;-62
2022/08/30 03:32:19;;;;;;;27.70;8.23;;;;;;;19.27;100.00;150881.41;5094745;28;20204;-62
2022/08/30 03:34:46;;;;;;;25.73;8.67;;;;;;;19.31;100.00;150891.56;5094594;28;20183;-62
2022/08/30 03:37:13;;;;;;;21.40;8.07;;;;;;;19.31;100.00;150891.56;5094562;28;20185;-62
2022/08/30 03:39:40;;;;;;;26.47;8.13;;;;;;;19.41;100.00;150917.03;5094534;28;20204;-63
2022/08/30 03:42:10;;;;;;;36.90;8.80;;;;;;;19.36;100.00;150903.03;5094453;28;20201;-64
2022/08/30 03:44:37;;;;;;;29.80;8.87;;;;;;;19.44;100.00;150923.44;5094757;28;20188;-62
2022/08/30 03:47:05;;;;;;;36.07;8.33;;;;;;;19.37;100.00;150905.59;5094258;28;20227;-62
2022/08/30 03:49:32;;;;;;;32.03;9.03;;;;;;;19.48;100.00;150934.91;5094444;28;20184;-63
2022/08/30 03:51:59;;;;;;;38.13;10.23;;;;;;;19.53;100.00;150946.34;5094381;28;20190;-62
2022/08/30 03:54:26;;;;;;;40.80;9.40;;;;;;;19.57;100.00;150957.81;5094195;28;20236;-63
2022/08/30 03:56:53;;;;;;;35.00;8.90;;;;;;;19.57;100.00;150957.81;5094114;28;20188;-62
2022/08/30 03:59:21;;;;;;;37.57;9.67;;;;;;;19.78;100.00;151008.72;5093845;28;20195;-63
2022/08/30 04:01:48;;;;;;;37.17;10.87;;;;;;;19.61;100.00;150968.00;5094140;28;20187;-63
2022/08/30 04:04:15;;;;;;;41.43;12.10;;;;;;;19.48;100.00;150933.63;5094269;28;20184;-62
2022/08/30 04:06:42;;;;;;;35.10;11.83;;;;;;;19.50;100.00;150938.72;5093981;28;20183;-63
2022/08/30 04:09:09;;;;;;;56.00;12.97;;;;;;;19.70;100.00;150988.34;5094223;28;20195;-63
2022/08/30 04:11:36;;;;;;;43.53;12.97;;;;;;;20.05;100.00;151078.75;5093960;28;20198;-63
2022/08/30 04:14:03;;;;;;;76.83;13.47;;;;;;;20.33;100.00;151148.81;5092899;28;20200;-63
2022/08/30 04:16:32;;;;;;;63.20;16.00;;;;;;;20.41;100.00;151167.94;5093934;28;20188;-64
2022/08/30 04:18:58;;;;;;;67.40;16.27;;;;;;;20.72;100.00;151246.88;5094210;28;20180;-63
2022/08/30 04:21:26;;;;;;;70.00;16.80;;;;;;;21.25;100.00;151379.44;5093821;28;20194;-63
2022/08/30 04:23:52;;;;;;;60.42;16.80;;;;;;;21.60;100.00;151468.59;5094131;28;20184;-62
2022/08/30 04:26:20;;;;;;;46.15;16.60;;;;;;;21.99;100.00;151565.53;5092999;28;20188;-62
2022/08/30 04:28:47;;;;;;;48.38;15.85;;;;;;;22.33;100.00;151653.53;5093813;28;20210;-63
2022/08/30 04:31:16;;;;;;;57.78;16.88;;;;;;;22.56;100.00;151709.66;5093668;28;20188;-63
2022/08/30 04:33:45;;;;;;;52.83;16.50;;;;;;;22.87;100.00;151788.78;5093532;28;20212;-62
2022/08/30 04:36:12;;;;;;;86.25;17.85;;;;;;;22.99;100.00;151818.13;5093984;28;20557;-62
2022/08/30 04:38:40;;;;;;;68.25;15.88;;;;;;;22.89;100.00;151793.88;5093609;28;20195;-53
2022/08/30 04:41:11;;;;;;;50.42;14.23;;;;;;;23.22;100.00;151878.06;5093521;28;20192;-60
2022/08/30 04:43:38;;;;;;;47.10;11.68;;;;;;;23.52;100.00;151952.13;5093793;28;20184;-64
2022/08/30 04:46:07;;;;;;;46.40;11.35;;;;;;;23.81;100.00;152026.13;5093760;28;20255;-64
2022/08/30 04:48:35;;;;;;;41.17;9.57;;;;;;;24.02;100.00;152079.75;5093650;28;20260;-64
2022/08/30 04:51:05;;;;;;;31.80;9.93;;;;;;;24.33;100.00;152157.69;5093822;28;20554;-64
2022/08/30 04:53:33;;;;;;;37.85;9.55;;;;;;;24.73;100.00;152258.59;5093509;28;20208;-63
2022/08/30 04:56:00;;;;;;;40.72;10.20;;;;;;;25.11;100.00;152353.16;5093752;28;20711;-64
2022/08/30 04:58:27;;;;;;;38.53;11.32;;;;;;;25.55;100.00;152464.34;5093434;28;20188;-64
2022/08/30 05:00:54;;;;;;;48.53;11.75;;;;;;;25.84;100.00;152538.50;5093594;28;20210;-63
2022/08/30 05:03:21;;;;;;;84.53;13.43;;;;;;;26.34;100.00;152666.41;5093688;28;20177;-64
2022/08/30 05:05:49;;;;;;;45.92;13.35;;;;;;;26.36;100.00;152671.47;5093723;28;20194;-64
2022/08/30 05:08:19;;;;;;;45.20;11.05;;;;;;;26.18;100.00;152624.16;5093348;28;20278;-64
2022/08/30 05:10:50;;;;;;;68.53;12.07;;;;;;;26.59;100.00;152727.75;5093219;28;20180;-64
2022/08/30 05:13:19;;;;;;;50.72;10.93;;;;;;;27.02;100.00;152837.78;5093618;28;20218;-64
2022/08/30 05:15:46;;;;;;;52.47;10.10;;;;;;;27.62;100.00;152990.09;5093615;28;20672;-63
2022/08/30 05:18:14;;;;;;;49.17;9.20;;;;;;;28.20;100.00;153134.75;5090872;28;20512;-63
2022/08/30 05:20:42;;;;;;;70.07;10.75;;;;;;;28.83;92.67;153294.81;5092573;28;20180;-65
2022/08/30 05:23:41;;;;;;;59.65;10.57;;;;;;;29.45;87.37;153452.44;5093014;28;20180;-64
2022/08/30 05:26:10;;;;;;;51.60;10.23;;;;;;;29.69;85.01;153513.91;5093296;28;20188;-64
2022/08/30 05:28:40;;;;;;;45.13;10.18;;;;;;;30.18;81.95;153638.25;5092983;28;20199;-63
2022/08/30 05:31:15;;;;;;;36.55;9.88;;;;;;;30.22;79.70;153648.47;5097831;28;20190;-62
2022/08/30 05:33:42;;;;;;;32.65;9.18;;;;;;;29.63;82.82;153498.53;5092165;28;20203;-61
2022/08/30 05:36:10;;;;;;;45.67;8.48;;;;;;;29.20;86.49;153388.28;5092543;28;20638;-61
2022/08/30 05:38:37;;;;;;;40.25;9.00;;;;;;;29.41;85.83;153442.13;5092004;28;20559;-62
2022/08/30 05:41:07;;;;;;;40.17;9.88;;;;;;;29.81;83.79;153543.38;5092109;28;20217;-62
2022/08/30 05:43:34;;;;;;;48.03;13.70;;;;;;;30.08;78.90;153612.63;5091932;28;20181;-62
2022/08/30 05:46:02;;;;;;;35.08;11.50;;;;;;;31.11;73.19;153874.22;5091999;28;20243;-62
2022/08/30 05:48:32;;;;;;;52.80;13.25;;;;;;;32.06;69.60;154114.13;5092364;28;20202;-62
2022/08/30 05:51:05;;;;;;;70.82;17.55;;;;;;;32.44;66.85;154210.41;5092332;28;20180;-60
2022/08/30 05:53:32;;;;;;;67.78;18.10;;;;;;;32.58;65.91;154247.66;5091822;28;20199;-61
2022/08/30 05:56:01;;;;;;;74.70;26.42;;;;;;;32.83;65.63;154310.56;5092008;28;20210;-63
2022/08/30 05:58:29;;;;;;;73.72;23.13;;;;;;;32.50;69.11;154225.81;5091955;28;20180;-62
2022/08/30 06:00:57;;;;;;;97.45;23.92;;;;;;;32.12;70.21;154130.84;5092040;28;20234;-62
2022/08/30 06:03:27;;;;;;;68.63;22.27;;;;;;;32.98;67.61;154349.06;5091615;28;20176;-61
2022/08/30 06:05:55;;;;;;;90.22;24.00;;;;;;;33.70;64.51;154530.19;5091673;28;20195;-62
2022/08/30 06:08:26;;;;;;;77.88;21.15;;;;;;;33.56;64.07;154495.50;5091935;28;20188;-62
2022/08/30 06:10:53;;;;;;;70.82;22.23;;;;;;;33.16;66.38;154394.06;5091773;28;20316;-62
2022/08/30 06:13:21;;;;;;;60.95;20.00;;;;;;;33.32;66.70;154433.84;5091538;28;20342;-60
2022/08/30 06:15:51;;;;;;;69.30;20.20;;;;;;;34.03;64.35;154613.69;5091752;28;20183;-62
2022/08/30 06:18:18;;;;;;;64.25;20.08;;;;;;;34.35;63.27;154695.94;5092002;28;20260;-62
2022/08/30 06:20:47;;;;;;;51.55;18.88;;;;;;;34.33;63.77;154690.84;5091734;28;20653;-61
2022/08/30 06:23:16;;;;;;;61.90;19.52;;;;;;;34.11;65.80;154634.25;5091849;28;20233;-62
2022/08/30 06:25:43;;;;;;;58.25;20.40;;;;;;;33.99;66.59;154604.72;5091829;28;20206;-62
2022/08/30 06:28:11;;;;;;;54.72;22.85;;;;;;;33.28;70.85;154423.56;5091448;28;20192;-62
2022/08/30 06:30:40;;;;;;;61.28;21.63;;;;;;;32.66;75.05;154266.94;5091747;28;20179;-62
2022/08/30 06:33:09;;;;;;;59.60;21.95;;;;;;;32.39;78.73;154198.84;5091812;28;20607;-62
2022/08/30 06:35:37;;;;;;;77.95;25.85;;;;;;;32.20;79.21;154148.81;5090446;28;20274;-62
2022/08/30 06:38:04;;;;;;;78.20;27.83;;;;;;;32.09;81.56;154123.16;5091334;28;20194;-62
2022/08/30 06:40:33;;;;;;;56.55;24.73;;;;;;;32.22;81.44;154155.22;5091293;28;20188;-62
2022/08/30 06:43:00;;;;;;;55.17;21.65;;;;;;;32.36;79.92;154189.88;5091634;28;20670;-63
2022/08/30 06:45:27;;;;;;;54.92;22.30;;;;;;;32.12;80.99;154130.84;5089760;28;20224;-63
2022/08/30 06:47:53;;;;;;;62.33;23.23;;;;;;;32.12;82.46;154130.84;5091263;28;20283;-63
2022/08/30 06:50:24;;;;;;;65.35;27.92;;;;;;;32.23;84.00;154156.50;5094748;28;20188;-62
2022/08/30 06:52:54;;;;;;;93.75;30.02;;;;;;;32.36;81.57;154189.88;5095608;28;20224;-62
2022/08/30 06:55:21;;;;;;;48.55;23.27;;;;;;;32.76;84.29;154291.34;5094873;28;20580;-62
2022/08/30 06:57:48;;;;;;;45.90;18.52;;;;;;;33.29;83.71;154426.16;5095302;28;20188;-62
2022/08/30 07:00:17;;;;;;;45.92;17.33;;;;;;;34.14;78.00;154641.94;5095553;28;20267;-63
2022/08/30 07:02:44;;;;;;;45.53;14.70;;;;;;;34.70;78.48;154784.66;5094924;28;20187;-62
2022/08/30 07:05:12;;;;;;;34.70;11.95;;;;;;;34.37;80.27;154701.13;5095174;28;20241;-61
2022/08/30 07:07:40;;;;;;;37.25;8.70;;;;;;;34.04;82.95;154616.22;5094724;28;20188;-62
2022/08/30 07:10:08;;;;;;;38.60;11.63;;;;;;;34.10;80.43;154631.66;5095175;28;20551;-62
2022/08/30 07:12:35;;;;;;;45.58;11.63;;;;;;;34.00;79.37;154605.97;5094867;28;20194;-62
2022/08/30 07:15:06;;;;;;;41.30;9.00;;;;;;;33.43;82.54;154463.41;5092046;28;20211;-62
2022/08/30 07:20:18;;;;;;;31.58;8.93;;;;;;;33.04;92.51;154364.50;5094845;28;20179;-61
2022/08/30 07:22:47;;;;;;;29.02;7.72;;;;;;;33.06;94.62;154369.59;5094317;28;20247;-61
2022/08/30 07:25:14;;;;;;;37.65;8.13;;;;;;;33.14;94.03;154388.94;5094520;28;20180;-62
2022/08/30 07:27:41;;;;;;;29.15;8.25;;;;;;;33.38;95.69;154449.25;5094980;28;20194;-56
2022/08/30 07:30:09;;;;;;;35.78;9.23;;;;;;;33.36;96.03;154445.41;5094241;28;20188;-62
2022/08/30 07:32:37;;;;;;;45.13;15.38;;;;;;;33.48;100.00;154476.22;5094661;28;20210;-61
2022/08/30 07:35:04;;;;;;;45.88;8.82;;;;;;;33.03;100.00;154361.91;5094335;28;20207;-63
2022/08/30 07:37:33;;;;;;;26.30;7.60;;;;;;;33.07;100.00;154372.19;5094190;28;20191;-61
2022/08/30 07:40:01;;;;;;;89.90;51.53;;;;;;;33.24;100.00;154414.59;5094244;28;20181;-62
2022/08/30 07:42:28;;;;;;;29.42;7.10;;;;;;;33.15;100.00;154391.47;5094252;28;20192;-62
2022/08/30 07:44:55;;;;;;;42.22;17.73;;;;;;;33.03;100.00;154361.91;5094258;28;20189;-59
2022/08/30 07:47:22;;;;;;;31.25;7.00;;;;;;;32.91;100.00;154329.81;5094502;28;20658;-63
2022/08/30 07:49:49;;;;;;;34.90;7.28;;;;;;;32.99;100.00;154350.34;5093024;28;20180;-61
2022/08/30 07:52:16;;;;;;;41.30;8.23;;;;;;;33.08;100.00;154374.75;5094068;28;20188;-60
2022/08/30 07:54:43;;;;;;;36.25;7.63;;;;;;;33.19;100.00;154400.44;5095883;28;20546;-62
2022/08/30 07:57:11;;;;;;;35.88;7.28;;;;;;;32.97;100.00;154346.47;5094190;28;20188;-62
2022/08/30 07:59:38;;;;;;;29.50;6.53;;;;;;;32.86;100.00;154318.25;5093674;28;20275;-62
2022/08/30 08:02:05;;;;;;;24.30;7.88;;;;;;;32.64;100.00;154261.78;5092980;28;20188;-63
2022/08/30 08:04:33;;;;;;;19.30;6.97;;;;;;;32.03;100.00;154106.44;5094120;28;20187;-62
2022/08/30 08:07:00;;;;;;;41.33;8.90;;;;;;;31.81;100.00;154049.97;5093917;28;20231;-62
2022/08/30 08:09:26;;;;;;;27.30;7.93;;;;;;;31.72;100.00;154029.47;5093567;28;20191;-62
2022/08/30 08:11:54;;;;;;;44.00;7.55;;;;;;;32.32;100.00;154179.63;5093885;28;20562;-62
2022/08/30 08:14:23;;;;;;;36.90;7.13;;;;;;;32.62;100.00;154256.66;5094076;28;20265;-62
2022/08/30 08:16:50;;;;;;;24.52;6.60;;;;;;;32.83;100.00;154310.56;5093864;28;20216;-61
2022/08/30 08:19:18;;;;;;;25.85;6.45;;;;;;;33.33;100.00;154436.41;5093948;28;20622;-60
2022/08/30 08:21:45;;;;;;;42.78;9.10;;;;;;;33.47;99.17;154472.38;5082494;28;20200;-62
2022/08/30 08:24:13;;;;;;;35.72;8.07;;;;;;;33.59;98.41;154501.91;5074484;28;20209;-62
2022/08/30 08:26:41;;;;;;;30.23;6.50;;;;;;;33.76;96.06;154545.63;5073659;28;20177;-62
2022/08/30 08:29:09;;;;;;;34.80;7.35;;;;;;;33.53;97.35;154489.06;5075838;28;20181;-62
2022/08/30 08:31:37;;;;;;;32.85;7.28;;;;;;;33.43;96.37;154463.41;5073371;28;20188;-61
2022/08/30 08:34:05;;;;;;;25.58;7.35;;;;;;;33.49;95.79;154478.78;5072978;28;20254;-62
2022/08/30 08:36:33;;;;;;;30.33;7.05;;;;;;;33.59;95.91;154501.91;5073043;28;20189;-61
2022/08/30 08:39:00;;;;;;;27.13;7.85;;;;;;;33.03;100.00;154360.63;5073099;28;20191;-61
2022/08/30 08:41:39;;;;;;;21.85;7.50;;;;;;;33.31;100.00;154431.31;5072886;28;20229;-59
2022/08/30 08:44:14;;;;;;;26.55;8.45;;;;;;;33.49;100.00;154478.78;5072216;28;20177;-60
2022/08/30 08:46:54;;;;;;;36.83;9.05;;;;;;;33.48;100.00;154474.97;5072292;28;20235;-62
2022/08/30 08:49:21;;;;;;;27.27;7.70;;;;;;;33.40;100.00;154454.38;5072707;28;20191;-63
2022/08/30 08:54:39;;;;;;;25.67;7.38;;;;;;;32.95;100.00;154340.09;5072456;28;20258;-61
2022/08/30 08:57:06;;;;;;;28.10;7.35;;;;;;;33.13;100.00;154385.03;5072627;28;20177;-62
2022/08/30 08:59:34;;;;;;;34.33;7.15;;;;;;;33.26;100.00;154418.47;5072550;28;20193;-62
2022/08/30 09:02:19;;;;;;;20.17;6.15;;;;;;;33.31;100.00;154431.31;5072796;28;20185;-62
2022/08/30 09:04:49;;;;;;;27.38;7.10;;;;;;;33.17;97.02;154395.34;5072962;28;20587;-62
2022/08/30 09:07:21;;;;;;;19.58;5.57;;;;;;;33.13;92.24;154386.31;5072293;28;20193;-62
2022/08/30 09:09:49;;;;;;;20.98;5.78;;;;;;;33.05;80.62;154367.06;5072414;28;20189;-61
2022/08/30 09:12:16;;;;;;;13.95;5.20;;;;;;;32.96;77.28;154343.97;5072190;28;20624;-61
2022/08/30 09:14:46;;;;;;;17.58;4.65;;;;;;;32.99;73.79;154350.34;5072284;28;20576;-62
2022/08/30 09:17:15;;;;;;;18.25;5.25;;;;;;;32.88;73.20;154322.13;5072279;28;20238;-62
2022/08/30 09:19:44;;;;;;;17.77;5.18;;;;;;;33.12;67.44;154383.75;5072326;28;20189;-62
2022/08/30 09:22:21;;;;;;;11.55;4.40;;;;;;;33.19;65.34;154401.75;5072605;28;20257;-62
2022/08/30 09:24:51;;;;;;;20.38;5.07;;;;;;;33.28;64.62;154423.56;5072008;28;20274;-62
2022/08/30 09:27:25;;;;;;;29.15;5.63;;;;;;;33.36;64.95;154444.09;5072244;28;20272;-60
2022/08/30 09:29:58;;;;;;;24.50;5.38;;;;;;;33.35;61.58;154442.88;5072291;28;20193;-62
2022/08/30 09:32:34;;;;;;;12.85;4.30;;;;;;;33.15;58.68;154391.47;5072111;28;20223;-62
2022/08/30 09:35:01;;;;;;;15.98;4.50;;;;;;;33.06;59.69;154368.31;5072272;28;20655;-62
2022/08/30 09:37:31;;;;;;;11.55;4.47;;;;;;;32.89;59.31;154325.94;5071941;28;20191;-62
2022/08/30 09:39:59;;;;;;;14.18;4.88;;;;;;;33.05;57.33;154365.78;5072724;28;20181;-63
2022/08/30 09:42:29;;;;;;;11.20;4.32;;;;;;;32.96;57.14;154343.97;5072060;28;20594;-61
2022/08/30 09:45:09;;;;;;;15.65;4.45;;;;;;;32.90;55.88;154328.53;5072070;28;20292;-61
2022/08/30 09:47:39;;;;;;;19.02;5.07;;;;;;;33.23;59.85;154410.78;5071680;28;20189;-62
2022/08/30 09:50:11;;;;;;;16.42;5.25;;;;;;;32.89;66.22;154324.66;5072231;28;20551;-62
2022/08/30 09:53:09;;;;;;;27.50;5.55;;;;;;;32.98;66.38;154347.78;5072065;28;20185;-62
2022/08/30 09:55:50;;;;;;;17.17;5.57;;;;;;;33.28;67.30;154424.84;5063543;28;20242;-63
2022/08/30 09:58:27;;;;;;;18.80;5.43;;;;;;;33.10;67.15;154378.56;5071642;28;20195;-62
2022/08/30 10:01:09;;;;;;;15.15;5.00;;;;;;;32.93;69.84;154334.97;5071658;28;20188;-61
2022/08/30 10:03:45;;;;;;;20.85;5.72;;;;;;;32.21;74.88;154151.41;5071924;28;20697;-61
2022/08/30 10:06:23;;;;;;;20.58;5.40;;;;;;;32.46;75.51;154215.56;5071533;28;20276;-61
2022/08/30 10:09:00;;;;;;;19.05;5.47;;;;;;;32.70;76.05;154277.19;5071929;28;20554;-61
2022/08/30 10:11:36;;;;;;;26.33;5.20;;;;;;;32.68;81.88;154272.03;5071511;28;20207;-62
2022/08/30 10:14:38;;;;;;;26.00;6.22;;;;;;;32.54;82.38;154236.09;5071913;28;20211;-62
2022/08/30 10:17:14;;;;;;;26.23;5.22;;;;;;;32.23;89.62;154157.81;5071653;28;20595;-62
2022/08/30 10:19:56;;;;;;;17.83;5.07;;;;;;;32.15;96.37;154138.56;5071285;28;20208;-62
2022/08/30 10:22:30;;;;;;;20.05;5.57;;;;;;;31.92;100.00;154079.47;5071741;28;20608;-62
2022/08/30 10:25:05;;;;;;;17.55;5.25;;;;;;;31.67;100.00;154015.34;5070762;28;20211;-63
2022/08/30 10:27:36;;;;;;;17.13;5.40;;;;;;;31.60;100.00;153997.41;5073496;28;20658;-61
2022/08/30 10:30:09;;;;;;;31.20;6.75;;;;;;;31.70;100.00;154023.03;5083615;28;20200;-62
2022/08/30 10:32:43;;;;;;;16.65;6.20;;;;;;;31.70;100.00;154023.03;5090128;28;20253;-61
2022/08/30 10:35:15;;;;;;;20.50;6.05;;;;;;;31.24;100.00;153907.56;5081725;28;20274;-62
2022/08/30 10:37:48;;;;;;;26.77;6.47;;;;;;;30.85;100.00;153807.53;5072502;28;20208;-61
2022/08/30 10:43:13;;;;;;;21.88;5.80;;;;;;;31.33;100.00;153928.06;5086242;28;20203;-62
2022/08/30 10:45:46;;;;;;;20.40;5.25;;;;;;;31.41;100.00;153949.88;5081349;28;20236;-61
2022/08/30 10:48:20;;;;;;;23.23;6.03;;;;;;;31.56;100.00;153987.13;5070997;28;20271;-60
2022/08/30 10:50:52;;;;;;;26.30;5.90;;;;;;;31.49;100.00;153970.38;5071128;28;20184;-62
2022/08/30 10:53:27;;;;;;;22.10;5.88;;;;;;;31.49;100.00;153969.09;5070995;28;20189;-62
2022/08/30 10:56:01;;;;;;;14.70;5.55;;;;;;;31.10;100.00;153870.41;5070861;28;20208;-61
2022/08/30 10:58:30;;;;;;;17.70;6.00;;;;;;;31.28;100.00;153917.81;5070995;28;20266;-62
2022/08/30 11:01:16;;;;;;;23.92;6.22;;;;;;;31.50;100.00;153972.97;5071213;28;20250;-62
2022/08/30 11:04:16;;;;;;;20.30;5.63;;;;;;;31.13;100.00;153879.34;5071237;28;20545;-61
2022/08/30 11:06:53;;;;;;;20.33;6.50;;;;;;;30.75;100.00;153781.88;5061590;28;20273;-62
2022/08/30 11:09:32;;;;;;;21.75;6.15;;;;;;;30.58;100.00;153738.28;5071049;28;20632;-62
2022/08/30 11:12:19;;;;;;;17.77;5.78;;;;;;;30.38;100.00;153689.50;5070748;28;20508;-63
2022/08/30 11:14:48;;;;;;;12.20;5.80;;;;;;;30.38;100.00;153689.50;5070932;28;20185;-63
2022/08/30 11:17:26;;;;;;;18.30;6.00;;;;;;;30.45;100.00;153706.22;5070869;28;20189;-62
2022/08/30 11:19:55;;;;;;;25.80;5.28;;;;;;;30.50;100.00;153717.78;5070693;28;20184;-62
2022/08/30 11:22:27;;;;;;;20.25;6.22;;;;;;;30.54;100.00;153728.03;5070751;28;20226;-62
2022/08/30 11:25:10;;;;;;;13.18;5.32;;;;;;;30.37;100.00;153686.97;5071092;28;20650;-62
2022/08/30 11:27:47;;;;;;;9.20;4.47;;;;;;;30.36;100.00;153684.38;5070743;28;20195;-62
2022/08/30 11:30:52;;;;;;;13.77;5.97;;;;;;;30.24;100.00;153653.63;5070786;28;20192;-62